createdAt,value
2018-12-30T00:02:06.557Z,20.57
2018-12-30T00:04:33.424Z,28.17
2018-12-30T00:07:00.652Z,26.90
2018-12-30T00:09:27.150Z,16.73
2018-12-30T00:11:53.914Z,23.55
2018-12-30T00:14:20.547Z,18.92
2018-12-30T00:16:47.305Z,20.05
2018-12-30T00:19:13.986Z,23.60
2018-12-30T00:21:40.534Z,25.45
2018-12-30T00:24:07.077Z,26.02
2018-12-30T00:26:33.715Z,21.00
2018-12-30T00:29:00.826Z,19.48
2018-12-30T00:31:27.431Z,22.02
2018-12-30T00:33:53.929Z,27.32
2018-12-30T00:36:20.610Z,29.05
2018-12-30T00:38:47.193Z,30.72
2018-12-30T00:41:14.069Z,31.90
2018-12-30T00:43:40.592Z,23.35
2018-12-30T00:46:07.181Z,31.85
2018-12-30T00:48:33.675Z,24.37
2018-12-30T00:51:00.328Z,18.45
2018-12-30T00:53:26.838Z,19.35
2018-12-30T00:55:53.511Z,25.65
2018-12-30T00:58:20.204Z,25.80
2018-12-30T01:00:47.564Z,24.67
2018-12-30T01:03:14.201Z,26.93
2018-12-30T01:05:40.762Z,25.97
2018-12-30T01:08:07.376Z,21.75
2018-12-30T01:10:33.929Z,35.88
2018-12-30T01:13:00.488Z,25.88
2018-12-30T01:15:27.139Z,27.30
2018-12-30T01:17:54.306Z,26.68
2018-12-30T01:20:20.870Z,32.20
2018-12-30T01:22:47.615Z,28.30
2018-12-30T01:25:14.353Z,28.30
2018-12-30T01:27:40.992Z,34.00
2018-12-30T01:30:07.605Z,28.47
2018-12-30T01:32:34.271Z,32.88
2018-12-30T01:35:00.880Z,45.08
2018-12-30T01:37:27.438Z,32.75
2018-12-30T01:39:54.057Z,34.27
2018-12-30T01:42:20.771Z,29.92
2018-12-30T01:44:47.340Z,24.98
2018-12-30T01:47:14.061Z,22.60
2018-12-30T01:49:41.072Z,20.77
2018-12-30T01:52:07.712Z,19.35
2018-12-30T01:54:34.331Z,20.43
2018-12-30T01:57:01.032Z,24.92
2018-12-30T01:59:27.531Z,24.72
2018-12-30T02:01:54.320Z,22.98
2018-12-30T02:04:20.930Z,21.65
2018-12-30T02:06:47.710Z,24.75
2018-12-30T02:09:17.559Z,21.48
2018-12-30T02:11:44.887Z,26.55
2018-12-30T02:14:11.374Z,21.15
2018-12-30T02:16:38.015Z,34.15
2018-12-30T02:19:04.966Z,22.15
2018-12-30T02:21:31.593Z,25.50
2018-12-30T02:23:58.154Z,26.07
2018-12-30T02:26:24.801Z,25.52
2018-12-30T02:28:51.348Z,24.43
2018-12-30T02:31:17.940Z,27.90
2018-12-30T02:33:45.110Z,26.30
2018-12-30T02:36:11.636Z,28.73
2018-12-30T02:38:38.226Z,32.45
2018-12-30T02:41:05.160Z,27.77
2018-12-30T02:43:31.891Z,28.02
2018-12-30T02:45:58.395Z,24.77
2018-12-30T02:48:25.429Z,34.73
2018-12-30T02:50:51.913Z,25.40
2018-12-30T02:53:18.712Z,20.85
2018-12-30T02:55:45.248Z,23.00
2018-12-30T02:58:11.936Z,27.67
2018-12-30T03:00:38.427Z,26.00
2018-12-30T03:03:05.679Z,26.42
2018-12-30T03:05:32.177Z,25.82
2018-12-30T03:07:58.791Z,26.82
2018-12-30T03:10:25.446Z,21.75
2018-12-30T03:12:52.230Z,22.55
2018-12-30T03:15:18.889Z,30.00
2018-12-30T03:17:45.531Z,17.90
2018-12-30T03:20:12.052Z,19.48
2018-12-30T03:22:38.659Z,24.63
2018-12-30T03:25:05.325Z,20.65
2018-12-30T03:27:31.938Z,25.00
2018-12-30T03:29:58.498Z,24.67
2018-12-30T03:32:25.173Z,22.60
2018-12-30T03:34:51.890Z,26.17
2018-12-30T03:37:18.441Z,31.35
2018-12-30T03:39:44.981Z,31.52
2018-12-30T03:42:11.621Z,29.40
2018-12-30T03:44:38.103Z,31.87
2018-12-30T03:47:04.756Z,32.88
2018-12-30T03:49:31.258Z,33.75
2018-12-30T03:51:57.938Z,32.88
2018-12-30T03:54:24.541Z,29.30
2018-12-30T03:56:51.251Z,32.48
2018-12-30T03:59:17.875Z,26.12
2018-12-30T04:01:44.396Z,30.32
2018-12-30T04:04:11.042Z,24.75
2018-12-30T04:06:37.577Z,25.80
2018-12-30T04:09:04.256Z,24.43
2018-12-30T04:11:30.860Z,28.62
2018-12-30T04:13:57.593Z,19.25
2018-12-30T04:16:24.261Z,25.85
2018-12-30T04:18:51.044Z,26.70
2018-12-30T04:21:17.694Z,20.12
2018-12-30T04:23:44.297Z,23.45
2018-12-30T04:26:10.915Z,23.90
2018-12-30T04:28:37.568Z,23.10
2018-12-30T04:31:04.162Z,19.32
2018-12-30T04:33:30.809Z,20.12
2018-12-30T04:35:57.377Z,22.30
2018-12-30T04:38:24.115Z,21.50
2018-12-30T04:40:50.741Z,20.85
2018-12-30T04:43:17.434Z,23.07
2018-12-30T04:45:43.953Z,26.95
2018-12-30T04:48:10.653Z,22.60
2018-12-30T04:50:37.134Z,27.60
2018-12-30T04:53:03.740Z,23.87
2018-12-30T04:55:30.439Z,21.62
2018-12-30T04:57:57.046Z,17.32
2018-12-30T05:00:23.657Z,24.30
2018-12-30T05:02:50.407Z,22.50
2018-12-30T05:05:17.054Z,26.73
2018-12-30T05:07:43.705Z,19.67
2018-12-30T05:10:10.215Z,23.18
2018-12-30T05:12:36.834Z,21.70
2018-12-30T05:15:03.716Z,25.35
2018-12-30T05:17:30.446Z,20.25
2018-12-30T05:19:57.051Z,23.02
2018-12-30T05:22:23.781Z,25.60
2018-12-30T05:24:53.215Z,27.60
2018-12-30T05:27:19.668Z,22.17
2018-12-30T05:29:46.317Z,21.48
2018-12-30T05:32:12.867Z,30.37
2018-12-30T05:34:39.529Z,22.73
2018-12-30T05:37:06.018Z,27.07
2018-12-30T05:39:32.652Z,26.07
2018-12-30T05:41:59.304Z,25.95
2018-12-30T05:44:25.968Z,24.90
2018-12-30T05:46:52.541Z,28.47
2018-12-30T05:49:19.184Z,31.93
2018-12-30T05:51:45.693Z,27.37
2018-12-30T05:54:12.321Z,27.48
2018-12-30T05:56:38.845Z,23.70
2018-12-30T05:59:05.413Z,26.80
2018-12-30T06:01:32.000Z,30.60
2018-12-30T06:03:58.735Z,31.45
2018-12-30T06:06:25.240Z,27.07
2018-12-30T06:08:51.937Z,26.50
2018-12-30T06:11:18.400Z,23.02
2018-12-30T06:13:45.063Z,20.20
2018-12-30T06:16:11.952Z,17.75
2018-12-30T06:18:38.590Z,18.77
2018-12-30T06:21:05.088Z,18.00
2018-12-30T06:23:31.824Z,19.75
2018-12-30T06:25:58.416Z,17.42
2018-12-30T06:28:25.114Z,22.77
2018-12-30T06:30:51.654Z,23.12
2018-12-30T06:33:18.332Z,26.50
2018-12-30T06:35:44.906Z,26.82
2018-12-30T06:38:11.539Z,25.52
2018-12-30T06:40:38.108Z,31.25
2018-12-30T06:43:04.647Z,27.32
2018-12-30T06:45:31.286Z,42.78
2018-12-30T06:47:57.895Z,32.60
2018-12-30T06:50:24.571Z,41.28
2018-12-30T06:52:57.595Z,36.45
2018-12-30T06:55:19.516Z,30.27
2018-12-30T06:57:46.059Z,32.25
2018-12-30T07:00:12.768Z,24.90
2018-12-30T07:02:39.306Z,28.25
2018-12-30T07:05:05.999Z,25.02
2018-12-30T07:07:32.675Z,28.02
2018-12-30T07:09:59.311Z,28.65
2018-12-30T07:12:25.977Z,30.25
2018-12-30T07:14:52.573Z,24.00
2018-12-30T07:17:19.179Z,21.40
2018-12-30T07:19:45.794Z,22.42
2018-12-30T07:22:12.359Z,19.07
2018-12-30T07:24:38.870Z,21.15
2018-12-30T07:27:05.446Z,19.32
2018-12-30T07:29:32.124Z,21.27
2018-12-30T07:31:58.730Z,22.77
2018-12-30T07:34:25.452Z,22.80
2018-12-30T07:36:51.925Z,27.65
2018-12-30T07:39:18.490Z,21.15
2018-12-30T07:41:44.983Z,19.05
2018-12-30T07:44:11.759Z,24.10
2018-12-30T07:46:38.226Z,18.48
2018-12-30T07:49:04.972Z,20.97
2018-12-30T07:51:31.680Z,20.85
2018-12-30T07:53:58.458Z,20.35
2018-12-30T07:56:24.976Z,22.67
2018-12-30T07:58:51.588Z,21.62
2018-12-30T08:01:18.066Z,25.97
2018-12-30T08:03:44.694Z,24.47
2018-12-30T08:06:11.297Z,26.85
2018-12-30T08:08:37.929Z,25.23
2018-12-30T08:11:04.611Z,32.95
2018-12-30T08:13:31.238Z,27.32
2018-12-30T08:15:57.914Z,30.15
2018-12-30T08:18:24.566Z,27.20
2018-12-30T08:20:51.292Z,35.05
2018-12-30T08:23:21.709Z,35.13
2018-12-30T08:25:46.410Z,26.07
2018-12-30T08:28:13.179Z,27.13
2018-12-30T08:30:40.235Z,18.77
2018-12-30T08:33:07.187Z,22.90
2018-12-30T08:35:34.885Z,20.00
2018-12-30T08:38:02.157Z,28.27
2018-12-30T08:40:29.630Z,18.00
2018-12-30T08:42:56.481Z,24.85
2018-12-30T08:45:23.660Z,21.05
2018-12-30T08:47:50.336Z,20.23
2018-12-30T08:50:17.172Z,17.30
2018-12-30T08:52:43.943Z,17.02
2018-12-30T08:55:10.704Z,19.00
2018-12-30T08:57:37.551Z,19.65
2018-12-30T09:00:04.357Z,28.55
2018-12-30T09:02:31.401Z,21.20
2018-12-30T09:04:58.543Z,21.80
2018-12-30T09:07:25.236Z,22.02
2018-12-30T09:09:52.094Z,18.10
2018-12-30T09:12:19.065Z,16.85
2018-12-30T09:14:45.922Z,18.32
2018-12-30T09:17:12.702Z,19.50
2018-12-30T09:19:39.771Z,17.40
2018-12-30T09:22:06.660Z,24.25
2018-12-30T09:24:33.642Z,18.25
2018-12-30T09:27:00.459Z,18.45
2018-12-30T09:29:27.423Z,19.35
2018-12-30T09:31:54.296Z,18.40
2018-12-30T09:34:21.140Z,18.60
2018-12-30T09:36:47.801Z,17.77
2018-12-30T09:39:14.750Z,23.75
2018-12-30T09:41:44.306Z,17.75
2018-12-30T09:44:11.060Z,18.57
2018-12-30T09:46:38.149Z,19.70
2018-12-30T09:49:04.984Z,23.12
2018-12-30T09:51:31.968Z,20.57
2018-12-30T09:53:58.836Z,22.45
2018-12-30T09:56:25.498Z,17.32
2018-12-30T09:58:52.267Z,19.73
2018-12-30T10:01:19.124Z,19.32
2018-12-30T10:03:46.099Z,22.13
2018-12-30T10:06:12.908Z,20.80
2018-12-30T10:08:39.718Z,20.05
2018-12-30T10:11:06.629Z,16.05
2018-12-30T10:13:33.216Z,20.77
2018-12-30T10:16:00.325Z,17.35
2018-12-30T10:18:26.876Z,17.73
2018-12-30T10:20:53.839Z,23.07
2018-12-30T10:23:20.603Z,17.90
2018-12-30T10:25:48.803Z,18.48
2018-12-30T10:28:15.873Z,17.73
2018-12-30T10:30:42.742Z,24.85
2018-12-30T10:33:09.697Z,18.90
2018-12-30T10:35:36.557Z,20.90
2018-12-30T10:38:03.440Z,20.23
2018-12-30T10:40:30.120Z,20.75
2018-12-30T10:42:57.020Z,23.87
2018-12-30T10:45:23.814Z,19.75
2018-12-30T10:47:51.801Z,17.87
2018-12-30T10:50:18.563Z,21.62
2018-12-30T10:52:45.233Z,17.48
2018-12-30T10:55:12.399Z,25.80
2018-12-30T10:57:39.277Z,21.42
2018-12-30T11:00:06.209Z,23.07
2018-12-30T11:02:32.879Z,22.65
2018-12-30T11:05:01.002Z,26.73
2018-12-30T11:07:27.541Z,25.05
2018-12-30T11:09:56.559Z,30.15
2018-12-30T11:12:23.316Z,23.67
2018-12-30T11:14:52.963Z,28.02
2018-12-30T11:17:19.665Z,27.07
2018-12-30T11:19:46.239Z,28.17
2018-12-30T11:22:13.154Z,29.70
2018-12-30T11:24:39.901Z,24.52
2018-12-30T11:27:06.616Z,23.85
2018-12-30T11:29:33.522Z,28.95
2018-12-30T11:32:00.308Z,26.75
2018-12-30T11:34:27.150Z,22.75
2018-12-30T11:36:53.911Z,31.70
2018-12-30T11:39:21.075Z,23.90
2018-12-30T11:41:48.158Z,22.40
2018-12-30T11:44:14.823Z,22.52
2018-12-30T11:46:41.758Z,29.90
2018-12-30T11:49:08.447Z,23.00
2018-12-30T11:51:35.423Z,25.62
2018-12-30T11:54:02.263Z,21.55
2018-12-30T11:56:29.290Z,19.15
2018-12-30T11:58:56.158Z,25.00
2018-12-30T12:01:22.861Z,27.80
2018-12-30T12:03:49.423Z,21.93
2018-12-30T12:06:16.178Z,23.75
2018-12-30T12:08:42.920Z,20.50
2018-12-30T12:11:09.801Z,20.85
2018-12-30T12:13:36.445Z,20.62
2018-12-30T12:16:03.459Z,22.80
2018-12-30T12:18:30.307Z,17.90
2018-12-30T12:20:57.281Z,23.02
2018-12-30T12:23:23.878Z,20.97
2018-12-30T12:25:50.797Z,23.70
2018-12-30T12:28:17.757Z,22.22
2018-12-30T12:30:44.737Z,23.87
2018-12-30T12:33:11.596Z,26.93
2018-12-30T12:35:38.337Z,49.55
2018-12-30T12:38:08.307Z,43.38
2018-12-30T12:40:35.041Z,45.67
2018-12-30T12:43:01.916Z,39.40
2018-12-30T12:45:28.692Z,42.10
2018-12-30T12:47:55.247Z,35.52
2018-12-30T12:50:22.115Z,32.60
2018-12-30T12:52:48.861Z,30.02
2018-12-30T12:55:15.500Z,41.30
2018-12-30T12:57:42.295Z,37.98
2018-12-30T13:00:14.978Z,42.40
2018-12-30T13:02:41.640Z,38.00
2018-12-30T13:05:08.373Z,37.33
2018-12-30T13:07:34.955Z,34.40
2018-12-30T13:10:01.637Z,27.22
2018-12-30T13:12:28.277Z,25.20
2018-12-30T13:14:55.153Z,26.77
2018-12-30T13:17:22.114Z,26.05
2018-12-30T13:19:49.135Z,26.33
2018-12-30T13:22:18.711Z,27.52
2018-12-30T13:24:45.551Z,30.10
2018-12-30T13:27:12.113Z,27.45
2018-12-30T13:29:38.791Z,24.50
2018-12-30T13:32:05.478Z,27.00
2018-12-30T13:34:32.208Z,29.80
2018-12-30T13:36:59.184Z,26.55
2018-12-30T13:39:25.840Z,21.93
2018-12-30T13:41:52.705Z,26.37
2018-12-30T13:44:19.459Z,23.45
2018-12-30T13:46:46.440Z,24.87
2018-12-30T13:49:13.419Z,20.65
2018-12-30T13:51:40.399Z,29.40
2018-12-30T13:54:07.238Z,27.50
2018-12-30T13:56:33.998Z,28.65
2018-12-30T13:59:00.478Z,26.90
2018-12-30T14:01:27.400Z,31.05
2018-12-30T14:03:54.080Z,29.20
2018-12-30T14:06:22.798Z,32.48
2018-12-30T14:08:49.547Z,32.75
2018-12-30T14:11:16.527Z,32.38
2018-12-30T14:13:43.377Z,38.55
2018-12-30T14:16:10.275Z,42.93
2018-12-30T14:18:37.047Z,45.15
2018-12-30T14:21:03.586Z,41.53
2018-12-30T14:23:30.343Z,44.10
2018-12-30T14:25:57.200Z,44.25
2018-12-30T14:28:25.896Z,37.85
2018-12-30T14:30:52.774Z,35.92
2018-12-30T14:33:19.608Z,36.88
2018-12-30T14:35:46.307Z,36.70
2018-12-30T14:38:13.063Z,33.38
2018-12-30T14:40:40.037Z,32.55
2018-12-30T14:43:06.754Z,33.28
2018-12-30T14:45:33.964Z,32.78
2018-12-30T14:48:00.821Z,33.95
2018-12-30T14:50:30.141Z,30.12
2018-12-30T14:52:57.008Z,29.20
2018-12-30T14:55:23.687Z,29.87
2018-12-30T14:57:50.636Z,30.23
2018-12-30T15:00:17.431Z,28.62
2018-12-30T15:02:44.359Z,36.30
2018-12-30T15:05:11.023Z,36.15
2018-12-30T15:07:37.687Z,38.13
2018-12-30T15:10:04.208Z,31.23
2018-12-30T15:12:33.778Z,37.70
2018-12-30T15:15:00.521Z,41.92
2018-12-30T15:17:27.602Z,48.48
2018-12-30T15:19:54.263Z,47.33
2018-12-30T15:22:21.243Z,47.33
2018-12-30T15:24:47.981Z,41.10
2018-12-30T15:27:14.742Z,46.65
2018-12-30T15:29:41.562Z,37.50
2018-12-30T15:32:08.382Z,35.52
2018-12-30T15:42:55.143Z,31.02
2018-12-30T15:45:21.692Z,36.53
2018-12-30T15:47:48.387Z,31.17
2018-12-30T15:50:15.143Z,31.45
2018-12-30T15:52:41.918Z,31.37
2018-12-30T15:55:08.876Z,34.38
2018-12-30T15:57:35.826Z,33.40
2018-12-30T16:00:02.590Z,24.92
2018-12-30T16:02:29.366Z,33.28
2018-12-30T16:04:56.423Z,25.62
2018-12-30T16:07:23.296Z,25.88
2018-12-30T16:09:50.159Z,21.62
2018-12-30T16:12:16.820Z,22.30
2018-12-30T16:14:43.509Z,26.87
2018-12-30T16:17:10.241Z,33.88
2018-12-30T16:19:36.897Z,31.12
2018-12-30T16:22:03.968Z,29.10
2018-12-30T16:24:30.844Z,28.92
2018-12-30T16:26:57.602Z,29.85
2018-12-30T16:29:24.220Z,35.78
2018-12-30T16:31:51.029Z,34.58
2018-12-30T16:34:18.080Z,38.25
2018-12-30T16:36:44.759Z,35.08
2018-12-30T16:39:11.832Z,38.48
2018-12-30T16:41:38.574Z,32.33
2018-12-30T16:44:05.342Z,30.85
2018-12-30T16:46:32.115Z,31.68
2018-12-30T16:49:02.139Z,29.27
2018-12-30T16:51:28.999Z,27.95
2018-12-30T16:53:56.255Z,26.60
2018-12-30T16:56:23.308Z,24.98
2018-12-30T16:58:50.264Z,36.00
2018-12-30T17:01:16.963Z,26.85
2018-12-30T17:03:44.263Z,23.95
2018-12-30T17:06:11.103Z,25.30
2018-12-30T17:08:38.288Z,33.98
2018-12-30T17:11:05.349Z,38.63
2018-12-30T17:13:32.128Z,39.53
2018-12-30T17:15:58.855Z,42.55
2018-12-30T17:18:25.748Z,36.83
2018-12-30T17:20:52.313Z,35.28
2018-12-30T17:41:03.126Z,25.72
2018-12-30T17:43:30.182Z,18.95
2018-12-30T17:45:56.954Z,25.62
2018-12-30T17:48:23.918Z,37.13
2018-12-30T17:50:50.785Z,42.45
2018-12-30T17:53:17.950Z,31.42
2018-12-30T17:55:50.699Z,34.75
2018-12-30T17:58:13.525Z,31.45
2018-12-30T18:00:43.250Z,32.98
2018-12-30T18:03:10.429Z,27.35
2018-12-30T18:05:37.398Z,22.42
2018-12-30T18:08:04.535Z,22.75
2018-12-30T18:10:31.331Z,18.80
2018-12-30T18:12:58.206Z,21.68
2018-12-30T18:15:27.915Z,19.95
2018-12-30T18:17:54.898Z,22.87
2018-12-30T18:20:21.757Z,26.57
2018-12-30T18:22:48.522Z,21.73
2018-12-30T18:25:15.785Z,28.70
2018-12-30T18:27:42.551Z,24.67
2018-12-30T18:30:09.271Z,26.97
2018-12-30T18:32:36.070Z,26.65
2018-12-30T18:35:03.568Z,29.42
2018-12-30T18:37:30.639Z,32.93
2018-12-30T18:39:57.687Z,27.35
2018-12-30T18:42:24.719Z,30.68
2018-12-30T18:44:52.579Z,26.80
2018-12-30T18:47:19.422Z,29.32
2018-12-30T18:49:46.490Z,37.65
2018-12-30T18:52:13.466Z,53.68
2018-12-30T18:54:40.527Z,51.25
2018-12-30T18:57:07.492Z,51.55
2018-12-30T18:59:34.448Z,51.65
2018-12-30T19:02:02.263Z,40.23
2018-12-30T19:04:29.319Z,40.40
2018-12-30T19:06:56.278Z,35.00
2018-12-30T19:09:23.442Z,34.27
2018-12-30T19:11:50.315Z,32.25
2018-12-30T19:14:17.355Z,30.70
2018-12-30T19:16:44.435Z,22.13
2018-12-30T19:19:17.365Z,23.60
2018-12-30T19:21:39.895Z,28.50
2018-12-30T19:24:06.957Z,31.00
2018-12-30T19:26:33.815Z,33.40
2018-12-30T19:29:01.095Z,27.65
2018-12-30T19:31:27.895Z,31.65
2018-12-30T19:33:54.755Z,21.75
2018-12-30T19:36:21.735Z,24.10
2018-12-30T19:38:48.975Z,19.57
2018-12-30T19:41:21.605Z,25.60
2018-12-30T19:43:48.655Z,24.43
2018-12-30T19:46:15.735Z,21.93
2018-12-30T19:48:42.675Z,21.70
2018-12-30T19:51:09.362Z,17.92
2018-12-30T19:53:36.227Z,20.35
2018-12-30T19:56:02.867Z,28.80
2018-12-30T19:58:29.749Z,23.47
2018-12-30T20:00:56.687Z,25.75
2018-12-30T20:03:23.589Z,31.05
2018-12-30T20:05:50.468Z,35.92
2018-12-30T20:08:17.208Z,26.95
2018-12-30T20:10:44.168Z,26.80
2018-12-30T20:13:11.030Z,24.52
2018-12-30T20:15:37.901Z,27.77
2018-12-30T20:18:04.840Z,17.37
2018-12-30T20:20:31.519Z,15.45
2018-12-30T20:22:58.401Z,22.05
2018-12-30T20:25:28.120Z,18.62
2018-12-30T20:27:55.080Z,23.52
2018-12-30T20:30:21.859Z,21.25
2018-12-30T20:32:48.618Z,16.65
2018-12-30T20:35:15.579Z,21.10
2018-12-30T20:37:42.455Z,20.92
2018-12-30T20:40:09.610Z,23.10
2018-12-30T20:42:36.534Z,20.00
2018-12-30T20:45:03.354Z,21.97
2018-12-30T20:47:31.133Z,22.50
2018-12-30T20:49:57.890Z,22.73
2018-12-30T20:52:24.958Z,19.62
2018-12-30T20:54:51.638Z,21.62
2018-12-30T20:57:18.498Z,18.37
2018-12-30T20:59:45.363Z,16.55
2018-12-30T21:02:12.124Z,19.25
2018-12-30T21:04:40.004Z,18.87
2018-12-30T21:07:06.663Z,16.73
2018-12-30T21:09:34.644Z,20.15
2018-12-30T21:12:01.397Z,21.17
2018-12-30T21:14:28.395Z,17.52
2018-12-30T21:16:55.141Z,20.82
2018-12-30T21:19:22.216Z,22.42
2018-12-30T21:21:48.980Z,22.15
2018-12-30T21:24:15.938Z,21.55
2018-12-30T21:26:45.554Z,26.30
2018-12-30T21:29:11.099Z,31.57
2018-12-30T21:31:37.979Z,30.30
2018-12-30T21:34:05.260Z,25.35
2018-12-30T21:36:32.004Z,28.85
2018-12-30T21:38:59.078Z,24.75
2018-12-30T21:41:25.644Z,29.52
2018-12-30T21:43:52.514Z,28.17
2018-12-30T21:46:19.178Z,21.37
2018-12-30T21:48:45.897Z,25.05
2018-12-30T21:51:12.604Z,22.05
2018-12-30T21:53:42.821Z,23.70
2018-12-30T21:56:09.702Z,21.15
2018-12-30T21:58:36.525Z,23.65
2018-12-30T22:01:03.411Z,28.32
2018-12-30T22:03:30.055Z,20.90
2018-12-30T22:05:56.939Z,49.42
2018-12-30T22:08:23.650Z,37.08
2018-12-30T22:10:50.620Z,35.03
2018-12-30T22:13:17.135Z,38.92
2018-12-30T22:15:44.306Z,25.75
2018-12-30T22:18:11.055Z,34.15
2018-12-30T22:20:38.040Z,36.98
2018-12-30T22:23:04.807Z,36.05
2018-12-30T22:25:31.502Z,40.12
2018-12-30T22:27:58.309Z,27.42
2018-12-30T22:30:24.882Z,28.15
2018-12-30T22:32:51.691Z,23.52
2018-12-30T22:35:18.441Z,17.37
2018-12-30T22:37:45.181Z,16.90
2018-12-30T22:40:11.925Z,23.57
2018-12-30T22:42:38.792Z,23.67
2018-12-30T22:45:05.648Z,27.20
2018-12-30T22:47:32.436Z,27.58
2018-12-30T22:49:59.280Z,38.95
2018-12-30T22:52:25.840Z,25.05
2018-12-30T22:54:52.695Z,34.88
2018-12-30T22:57:19.199Z,38.08
2018-12-30T22:59:45.680Z,32.28
2018-12-30T23:02:12.688Z,46.28
2018-12-30T23:04:39.447Z,45.33
2018-12-30T23:07:06.324Z,38.90
2018-12-30T23:09:32.968Z,37.33
2018-12-30T23:11:59.640Z,34.15
2018-12-30T23:14:26.192Z,26.50
2018-12-30T23:16:52.988Z,32.28
2018-12-30T23:19:19.621Z,22.25
2018-12-30T23:21:46.248Z,20.68
2018-12-30T23:24:12.863Z,18.25
2018-12-30T23:26:39.493Z,18.20
2018-12-30T23:29:05.993Z,24.87
2018-12-30T23:31:32.693Z,17.48
2018-12-30T23:33:59.215Z,20.37
2018-12-30T23:36:25.857Z,24.12
2018-12-30T23:38:52.396Z,26.30
2018-12-30T23:41:19.056Z,35.55
2018-12-30T23:43:45.539Z,32.03
2018-12-30T23:46:12.100Z,31.07
2018-12-30T23:48:38.750Z,30.82
2018-12-30T23:51:05.372Z,22.42
2018-12-30T23:53:31.807Z,23.90
2018-12-30T23:55:58.486Z,30.37
2018-12-30T23:58:24.961Z,29.00
